createdAt,value
2023-12-08T00:00:55.486Z,755.00
2023-12-08T00:01:55.542Z,701.00
2023-12-08T00:02:55.632Z,687.00
2023-12-08T00:03:55.630Z,660.00
2023-12-08T00:04:55.707Z,655.00
2023-12-08T00:05:55.780Z,647.00
2023-12-08T00:06:55.728Z,641.00
2023-12-08T00:07:55.765Z,633.00
2023-12-08T00:08:55.779Z,621.00
2023-12-08T00:09:55.816Z,617.00
2023-12-08T00:10:55.843Z,613.00
2023-12-08T00:11:55.908Z,617.00
2023-12-08T00:12:55.866Z,632.00
2023-12-08T00:13:55.850Z,651.00
2023-12-08T00:14:55.846Z,680.00
2023-12-08T00:15:55.848Z,744.00
2023-12-08T00:16:55.940Z,786.00
2023-12-08T00:17:55.938Z,838.00
2023-12-08T00:18:56.009Z,871.00
2023-12-08T00:19:56.044Z,887.00
2023-12-08T00:20:56.131Z,922.00
2023-12-08T00:21:56.159Z,942.00
2023-12-08T00:22:56.244Z,927.00
2023-12-08T00:23:56.424Z,980.00
2023-12-08T00:24:56.485Z,998.00
2023-12-08T00:25:56.600Z,1008.00
2023-12-08T00:26:56.703Z,965.00
2023-12-08T00:27:56.838Z,995.00
2023-12-08T00:28:57.101Z,1046.00
2023-12-08T00:29:57.435Z,1060.00
2023-12-08T00:30:57.647Z,1052.00
2023-12-08T00:31:57.874Z,1044.00
2023-12-08T00:32:58.293Z,974.00
2023-12-08T00:33:58.452Z,915.00
2023-12-08T00:34:58.614Z,813.00
2023-12-08T00:35:58.924Z,743.00
2023-12-08T00:36:59.261Z,793.00
2023-12-08T00:37:59.439Z,841.00
2023-12-08T00:38:59.855Z,882.00
2023-12-08T00:39:59.970Z,905.00
2023-12-08T00:41:00.264Z,949.00
2023-12-08T00:42:00.541Z,922.00
2023-12-08T00:43:00.721Z,920.00
2023-12-08T00:44:00.946Z,949.00
2023-12-08T00:45:01.202Z,942.00
2023-12-08T00:46:01.539Z,989.00
2023-12-08T00:47:01.773Z,985.00
2023-12-08T00:48:02.237Z,1058.00
2023-12-08T00:49:02.397Z,1064.00
2023-12-08T00:50:02.563Z,1070.00
2023-12-08T00:51:02.839Z,1061.00
2023-12-08T00:52:02.987Z,1097.00
2023-12-08T00:53:03.404Z,1070.00
2023-12-08T00:54:03.654Z,1053.00
2023-12-08T00:55:03.861Z,996.00
2023-12-08T00:56:04.044Z,989.00
2023-12-08T00:57:04.391Z,924.00
2023-12-08T00:58:04.664Z,928.00
2023-12-08T00:59:04.818Z,918.00
2023-12-08T01:00:05.230Z,874.00
2023-12-08T01:01:05.493Z,807.00
2023-12-08T01:02:05.610Z,857.00
2023-12-08T01:03:05.980Z,901.00
2023-12-08T01:04:06.209Z,943.00
2023-12-08T01:05:06.319Z,975.00
2023-12-08T01:06:06.704Z,972.00
2023-12-08T01:07:06.899Z,987.00
2023-12-08T01:08:07.096Z,1015.00
2023-12-08T01:09:07.435Z,1017.00
2023-12-08T01:10:07.609Z,1043.00
2023-12-08T01:11:07.930Z,1008.00
2023-12-08T01:12:08.280Z,991.00
2023-12-08T01:13:08.417Z,1016.00
2023-12-08T01:14:08.629Z,962.00
2023-12-08T01:15:09.081Z,900.00
2023-12-08T01:16:09.217Z,848.00
2023-12-08T01:17:09.517Z,850.00
2023-12-08T01:18:09.794Z,783.00
2023-12-08T01:19:10.035Z,734.00
2023-12-08T01:20:10.259Z,726.00
2023-12-08T01:21:10.549Z,760.00
2023-12-08T01:22:10.782Z,807.00
2023-12-08T01:23:11.025Z,837.00
2023-12-08T01:24:11.421Z,775.00
2023-12-08T01:25:11.542Z,710.00
2023-12-08T01:26:11.776Z,666.00
2023-12-08T01:27:12.191Z,650.00
2023-12-08T01:28:12.509Z,639.00
2023-12-08T01:29:12.523Z,633.00
2023-12-08T01:30:12.830Z,657.00
2023-12-08T01:31:13.006Z,709.00
2023-12-08T01:32:13.315Z,781.00
2023-12-08T01:33:13.692Z,827.00
2023-12-08T01:34:14.066Z,873.00
2023-12-08T01:35:14.066Z,892.00
2023-12-08T01:36:39.121Z,949.00
2023-12-08T01:37:15.302Z,951.00
2023-12-08T01:38:14.360Z,958.00
2023-12-08T01:39:14.414Z,978.00
2023-12-08T01:40:15.280Z,988.00
2023-12-08T01:41:14.413Z,1018.00
2023-12-08T01:42:14.463Z,1043.00
2023-12-08T01:43:14.510Z,1055.00
2023-12-08T01:44:14.529Z,1030.00
2023-12-08T01:45:14.632Z,1060.00
2023-12-08T01:46:14.613Z,1069.00
2023-12-08T01:47:14.627Z,1056.00
2023-12-08T01:48:14.766Z,1055.00
2023-12-08T01:49:14.830Z,1057.00
2023-12-08T01:50:14.797Z,1029.00
2023-12-08T01:51:14.887Z,1032.00
2023-12-08T01:52:14.898Z,1034.00
2023-12-08T01:53:14.990Z,1036.00
2023-12-08T01:54:15.100Z,1024.00
2023-12-08T01:55:15.171Z,1021.00
2023-12-08T01:56:15.217Z,1061.00
2023-12-08T01:57:15.344Z,1037.00
2023-12-08T01:58:15.420Z,1042.00
2023-12-08T01:59:15.517Z,1036.00
2023-12-08T02:00:15.600Z,1045.00
2023-12-08T02:01:15.686Z,1017.00
2023-12-08T02:02:15.626Z,1033.00
2023-12-08T02:03:15.762Z,1012.00
2023-12-08T02:04:15.867Z,993.00
2023-12-08T02:05:15.808Z,1005.00
2023-12-08T02:06:15.925Z,970.00
2023-12-08T02:07:15.941Z,960.00
2023-12-08T02:08:15.982Z,911.00
2023-12-08T02:09:16.102Z,903.00
2023-12-08T02:10:16.137Z,935.00
2023-12-08T02:11:18.085Z,909.00
2023-12-08T02:12:16.172Z,919.00
2023-12-08T02:13:16.206Z,904.00
2023-12-08T02:14:16.279Z,915.00
2023-12-08T02:15:16.470Z,909.00
2023-12-08T02:16:16.412Z,898.00
2023-12-08T02:17:16.472Z,912.00
2023-12-08T02:18:16.640Z,941.00
2023-12-08T02:19:16.728Z,951.00
2023-12-08T02:20:16.685Z,985.00
2023-12-08T02:21:16.844Z,1011.00
2023-12-08T02:22:16.830Z,1033.00
2023-12-08T02:23:16.847Z,1040.00
2023-12-08T02:24:16.869Z,1066.00
2023-12-08T02:25:16.867Z,1073.00
2023-12-08T02:26:16.924Z,1065.00
2023-12-08T02:27:17.034Z,1082.00
2023-12-08T02:28:17.078Z,1085.00
2023-12-08T02:29:17.115Z,1080.00
2023-12-08T02:30:17.270Z,1072.00
2023-12-08T02:31:17.250Z,1063.00
2023-12-08T02:32:17.350Z,1047.00
2023-12-08T02:33:17.491Z,1043.00
2023-12-08T02:34:17.470Z,1039.00
2023-12-08T02:35:17.360Z,1028.00
2023-12-08T02:36:17.532Z,1012.00
2023-12-08T02:37:17.397Z,1021.00
2023-12-08T02:38:17.386Z,1021.00
2023-12-08T02:39:17.444Z,1021.00
2023-12-08T02:40:17.409Z,1022.00
2023-12-08T02:41:17.398Z,1026.00
2023-12-08T02:42:17.469Z,1028.00
2023-12-08T02:43:17.419Z,1014.00
2023-12-08T02:44:17.433Z,976.00
2023-12-08T02:45:17.492Z,961.00
2023-12-08T02:46:17.478Z,914.00
2023-12-08T02:47:17.477Z,837.00
2023-12-08T02:48:17.593Z,769.00
2023-12-08T02:49:17.569Z,737.00
2023-12-08T02:50:17.480Z,690.00
2023-12-08T02:51:17.542Z,663.00
2023-12-08T02:52:17.541Z,657.00
2023-12-08T02:53:17.566Z,649.00
2023-12-08T02:54:17.685Z,655.00
2023-12-08T02:55:17.590Z,664.00
2023-12-08T02:56:17.600Z,673.00
2023-12-08T02:57:17.681Z,671.00
2023-12-08T02:58:17.659Z,675.00
2023-12-08T02:59:17.677Z,700.00
2023-12-08T03:00:17.722Z,718.00
2023-12-08T03:01:17.707Z,759.00
2023-12-08T03:02:17.688Z,774.00
2023-12-08T03:03:17.750Z,794.00
2023-12-08T03:04:17.796Z,796.00
2023-12-08T03:05:17.871Z,801.00
2023-12-08T03:06:17.921Z,812.00
2023-12-08T03:07:17.952Z,836.00
2023-12-08T03:08:17.965Z,864.00
2023-12-08T03:09:18.038Z,870.00
2023-12-08T03:10:18.030Z,871.00
2023-12-08T03:11:18.086Z,895.00
2023-12-08T03:12:18.105Z,876.00
2023-12-08T03:13:18.115Z,894.00
2023-12-08T03:14:18.173Z,879.00
2023-12-08T03:15:18.268Z,853.00
2023-12-08T03:16:18.278Z,828.00
2023-12-08T03:17:18.361Z,812.00
2023-12-08T03:18:18.389Z,784.00
2023-12-08T03:19:18.391Z,776.00
2023-12-08T03:20:18.378Z,761.00
2023-12-08T03:21:18.586Z,751.00
2023-12-08T03:22:18.764Z,743.00
2023-12-08T03:23:18.953Z,732.00
2023-12-08T03:24:19.275Z,720.00
2023-12-08T03:25:19.447Z,696.00
2023-12-08T03:26:19.647Z,680.00
2023-12-08T03:27:19.914Z,672.00
2023-12-08T03:28:20.177Z,669.00
2023-12-08T03:29:20.337Z,664.00
2023-12-08T03:30:20.634Z,662.00
2023-12-08T03:31:20.794Z,656.00
2023-12-08T03:32:21.027Z,655.00
2023-12-08T03:33:21.385Z,647.00
2023-12-08T03:34:21.629Z,644.00
2023-12-08T03:35:21.787Z,637.00
2023-12-08T03:36:21.881Z,639.00
2023-12-08T03:37:22.054Z,638.00
2023-12-08T03:38:22.349Z,633.00
2023-12-08T03:39:22.536Z,629.00
2023-12-08T03:40:22.712Z,626.00
2023-12-08T03:41:22.881Z,628.00
2023-12-08T03:42:23.169Z,625.00
2023-12-08T03:43:23.368Z,635.00
2023-12-08T03:44:23.636Z,618.00
2023-12-08T03:45:23.749Z,615.00
2023-12-08T03:46:24.000Z,619.00
2023-12-08T03:47:24.437Z,611.00
2023-12-08T03:48:24.296Z,601.00
2023-12-08T03:49:24.379Z,614.00
2023-12-08T03:50:24.206Z,629.00
2023-12-08T03:51:24.197Z,612.00
2023-12-08T03:52:24.215Z,609.00
2023-12-08T03:53:24.187Z,600.00
2023-12-08T03:54:24.187Z,602.00
2023-12-08T03:55:24.158Z,603.00
2023-12-08T03:56:24.199Z,613.00
2023-12-08T03:57:24.799Z,601.00
2023-12-08T03:58:24.446Z,603.00
2023-12-08T03:59:24.470Z,601.00
2023-12-08T04:00:24.423Z,613.00
2023-12-08T04:01:24.426Z,622.00
2023-12-08T04:02:24.658Z,644.00
2023-12-08T04:03:24.913Z,616.00
2023-12-08T04:04:27.156Z,612.00
2023-12-08T04:05:25.090Z,614.00
2023-12-08T04:06:25.004Z,609.00
2023-12-08T04:07:25.098Z,611.00
2023-12-08T04:08:24.874Z,598.00
2023-12-08T04:09:26.775Z,600.00
2023-12-08T04:10:24.769Z,601.00
2023-12-08T04:11:24.717Z,604.00
2023-12-08T04:12:24.659Z,607.00
2023-12-08T04:13:24.629Z,603.00
2023-12-08T04:14:24.539Z,605.00
2023-12-08T04:15:24.478Z,597.00
2023-12-08T04:16:24.419Z,601.00
2023-12-08T04:17:24.762Z,613.00
2023-12-08T04:18:24.407Z,620.00
2023-12-08T04:19:24.358Z,631.00
2023-12-08T04:20:24.166Z,638.00
2023-12-08T04:21:24.081Z,642.00
2023-12-08T04:22:24.011Z,654.00
2023-12-08T04:23:23.944Z,668.00
2023-12-08T04:24:23.894Z,703.00
2023-12-08T04:25:23.813Z,732.00
2023-12-08T04:26:23.745Z,690.00
2023-12-08T04:27:23.925Z,699.00
2023-12-08T04:28:23.628Z,722.00
2023-12-08T04:29:23.575Z,739.00
2023-12-08T04:30:23.590Z,747.00
2023-12-08T04:31:23.462Z,721.00
2023-12-08T04:32:23.432Z,743.00
2023-12-08T04:33:23.824Z,749.00
2023-12-08T04:34:23.983Z,781.00
2023-12-08T04:35:24.070Z,783.00
2023-12-08T04:36:24.298Z,798.00
2023-12-08T04:37:24.880Z,785.00
2023-12-08T04:38:24.738Z,780.00
2023-12-08T04:39:24.969Z,781.00
2023-12-08T04:40:25.234Z,784.00
2023-12-08T04:41:25.460Z,769.00
2023-12-08T04:42:25.629Z,766.00
2023-12-08T04:43:25.873Z,783.00
2023-12-08T04:44:26.152Z,803.00
2023-12-08T04:45:26.478Z,847.00
2023-12-08T04:46:26.583Z,890.00
2023-12-08T04:47:27.070Z,928.00
2023-12-08T04:48:27.112Z,981.00
2023-12-08T04:49:35.531Z,600.00
2023-12-08T04:50:34.691Z,600.00
2023-12-08T04:51:34.630Z,600.00
2023-12-08T04:52:34.622Z,600.00
2023-12-08T04:53:34.690Z,600.00
2023-12-08T04:54:34.625Z,605.00
2023-12-08T04:55:34.615Z,608.00
2023-12-08T04:56:34.640Z,601.00
2023-12-08T04:57:34.711Z,603.00
2023-12-08T04:58:34.601Z,595.00
2023-12-08T04:59:34.657Z,600.00
2023-12-08T05:00:34.590Z,600.00
2023-12-08T05:01:34.765Z,600.00
2023-12-08T05:02:34.988Z,600.00
2023-12-08T05:03:35.158Z,600.00
2023-12-08T05:04:35.434Z,603.00
2023-12-08T05:05:35.721Z,609.00
2023-12-08T05:06:36.048Z,611.00
2023-12-08T05:07:36.069Z,601.00
2023-12-08T05:08:36.318Z,615.00
2023-12-08T05:09:36.553Z,624.00
2023-12-08T05:10:36.763Z,614.00
2023-12-08T05:11:37.036Z,626.00
2023-12-08T05:12:37.185Z,640.00
2023-12-08T05:13:37.434Z,648.00
2023-12-08T05:14:37.735Z,658.00
2023-12-08T05:15:37.812Z,660.00
2023-12-08T05:16:38.121Z,682.00
2023-12-08T05:17:38.402Z,711.00
2023-12-08T05:18:38.545Z,722.00
2023-12-08T05:19:38.816Z,754.00
2023-12-08T05:20:39.019Z,760.00
2023-12-08T05:21:39.235Z,773.00
2023-12-08T05:22:39.429Z,793.00
2023-12-08T05:23:39.688Z,779.00
2023-12-08T05:24:39.871Z,666.00
2023-12-08T05:25:40.133Z,639.00
2023-12-08T05:26:40.363Z,615.00
2023-12-08T05:27:40.588Z,636.00
2023-12-08T05:28:40.842Z,629.00
2023-12-08T05:29:41.041Z,627.00
2023-12-08T05:30:41.276Z,630.00
2023-12-08T05:31:41.453Z,640.00
2023-12-08T05:32:41.805Z,652.00
2023-12-08T05:33:42.030Z,687.00
2023-12-08T05:34:42.166Z,663.00
2023-12-08T05:35:42.334Z,655.00
2023-12-08T05:36:42.529Z,640.00
2023-12-08T05:37:42.821Z,632.00
2023-12-08T05:38:43.120Z,613.00
2023-12-08T05:39:43.193Z,612.00
2023-12-08T05:40:43.503Z,614.00
2023-12-08T05:41:43.709Z,601.00
2023-12-08T05:42:43.901Z,613.00
2023-12-08T05:43:44.108Z,625.00
2023-12-08T05:44:44.335Z,604.00
2023-12-08T05:45:44.612Z,600.00
2023-12-08T05:46:44.793Z,608.00
2023-12-08T05:47:45.151Z,630.00
2023-12-08T05:48:45.363Z,642.00
2023-12-08T05:49:45.600Z,629.00
2023-12-08T05:50:46.994Z,617.00
2023-12-08T05:51:45.611Z,622.00
2023-12-08T05:52:45.595Z,619.00
2023-12-08T05:53:45.532Z,605.00
2023-12-08T05:54:45.535Z,645.00
2023-12-08T05:55:45.596Z,625.00
2023-12-08T05:56:45.671Z,628.00
2023-12-08T05:57:45.711Z,661.00
2023-12-08T05:58:45.718Z,668.00
2023-12-08T05:59:45.641Z,678.00
2023-12-08T06:00:45.651Z,679.00
2023-12-08T06:01:45.720Z,667.00
2023-12-08T06:02:45.768Z,658.00
2023-12-08T06:03:45.721Z,636.00
2023-12-08T06:04:45.896Z,611.00
2023-12-08T06:05:46.187Z,600.00
2023-12-08T06:06:46.405Z,599.00
2023-12-08T06:07:46.588Z,600.00
2023-12-08T06:08:46.800Z,606.00
2023-12-08T06:09:47.020Z,627.00
2023-12-08T06:10:47.158Z,642.00
2023-12-08T06:11:47.656Z,654.00
2023-12-08T06:12:47.689Z,695.00
2023-12-08T06:13:47.807Z,732.00
2023-12-08T06:14:48.069Z,781.00
2023-12-08T06:15:48.204Z,777.00
2023-12-08T06:16:48.422Z,718.00
2023-12-08T06:17:48.771Z,717.00
2023-12-08T06:18:49.076Z,668.00
2023-12-08T06:19:49.074Z,650.00
2023-12-08T06:20:49.409Z,641.00
2023-12-08T06:21:49.466Z,645.00
2023-12-08T06:22:49.708Z,634.00
2023-12-08T06:23:50.060Z,612.00
2023-12-08T06:24:50.124Z,616.00
2023-12-08T06:25:50.339Z,616.00
2023-12-08T06:26:50.638Z,616.00
2023-12-08T06:27:50.832Z,613.00
2023-12-08T06:28:51.043Z,615.00
2023-12-08T06:29:51.351Z,620.00
2023-12-08T06:30:51.527Z,616.00
2023-12-08T06:31:51.808Z,615.00
2023-12-08T06:32:52.085Z,624.00
2023-12-08T06:34:05.038Z,653.00
2023-12-08T06:34:53.275Z,654.00
2023-12-08T06:35:52.238Z,662.00
2023-12-08T06:36:52.194Z,696.00
2023-12-08T06:37:52.185Z,734.00
2023-12-08T06:38:52.203Z,790.00
2023-12-08T06:39:52.166Z,836.00
2023-12-08T06:40:52.162Z,811.00
2023-12-08T06:41:52.128Z,821.00
2023-12-08T06:42:52.046Z,786.00
2023-12-08T06:43:51.993Z,781.00
2023-12-08T06:44:51.997Z,788.00
2023-12-08T06:45:51.916Z,807.00
2023-12-08T06:46:51.898Z,787.00
2023-12-08T06:47:51.964Z,780.00
2023-12-08T06:48:52.000Z,763.00
2023-12-08T06:49:52.075Z,758.00
2023-12-08T06:50:52.182Z,773.00
2023-12-08T06:51:52.431Z,787.00
2023-12-08T06:52:52.739Z,792.00
2023-12-08T06:53:54.144Z,794.00
2023-12-08T06:54:52.812Z,779.00
2023-12-08T06:55:52.833Z,753.00
2023-12-08T06:56:52.894Z,751.00
2023-12-08T06:57:52.849Z,730.00
2023-12-08T06:58:53.604Z,738.00
2023-12-08T06:59:53.071Z,758.00
2023-12-08T07:00:53.076Z,791.00
2023-12-08T07:01:53.081Z,787.00
2023-12-08T07:02:53.082Z,776.00
2023-12-08T07:03:53.272Z,757.00
2023-12-08T07:04:53.238Z,776.00
2023-12-08T07:05:53.330Z,762.00
2023-12-08T07:06:53.273Z,767.00
2023-12-08T07:07:53.289Z,774.00
2023-12-08T07:08:53.447Z,787.00
2023-12-08T07:09:53.581Z,800.00
2023-12-08T07:10:53.748Z,805.00
2023-12-08T07:11:54.462Z,812.00
2023-12-08T07:12:54.032Z,877.00
2023-12-08T07:13:54.065Z,951.00
2023-12-08T07:14:54.305Z,997.00
2023-12-08T07:15:54.189Z,1029.00
2023-12-08T07:16:54.278Z,1043.00
2023-12-08T07:17:54.395Z,1055.00
2023-12-08T07:18:56.000Z,1069.00
2023-12-08T07:19:54.520Z,1084.00
2023-12-08T07:20:54.331Z,1100.00
2023-12-08T07:21:54.270Z,1066.00
2023-12-08T07:22:54.232Z,986.00
2023-12-08T07:23:54.238Z,946.00
2023-12-08T07:24:54.184Z,907.00
2023-12-08T07:25:54.149Z,885.00
2023-12-08T07:26:54.122Z,868.00
2023-12-08T07:27:54.067Z,835.00
2023-12-08T07:28:54.016Z,822.00
2023-12-08T07:29:54.011Z,819.00
2023-12-08T07:30:53.949Z,816.00
2023-12-08T07:31:53.906Z,821.00
2023-12-08T07:32:54.031Z,836.00
2023-12-08T07:33:53.976Z,840.00
2023-12-08T07:34:53.959Z,831.00
2023-12-08T07:35:54.088Z,824.00
2023-12-08T07:36:54.308Z,814.00
2023-12-08T07:37:54.574Z,803.00
2023-12-08T07:38:54.806Z,801.00
2023-12-08T07:39:55.030Z,784.00
2023-12-08T07:40:55.246Z,786.00
2023-12-08T07:41:55.490Z,757.00
2023-12-08T07:42:55.691Z,753.00
2023-12-08T07:43:56.127Z,742.00
2023-12-08T07:44:56.282Z,745.00
2023-12-08T07:45:56.389Z,761.00
2023-12-08T07:46:56.628Z,780.00
2023-12-08T07:47:56.991Z,763.00
2023-12-08T07:48:57.196Z,777.00
2023-12-08T07:49:57.413Z,801.00
2023-12-08T07:50:57.624Z,767.00
2023-12-08T07:51:57.910Z,802.00
2023-12-08T07:52:58.059Z,801.00
2023-12-08T07:54:00.077Z,832.00
2023-12-08T07:54:58.368Z,831.00
2023-12-08T07:55:58.273Z,827.00
2023-12-08T07:56:58.506Z,835.00
2023-12-08T07:57:58.183Z,829.00
2023-12-08T07:58:58.142Z,794.00
2023-12-08T07:59:58.115Z,775.00
2023-12-08T08:00:58.036Z,798.00
2023-12-08T08:01:57.969Z,763.00
2023-12-08T08:02:57.976Z,774.00
2023-12-08T08:03:58.643Z,763.00
2023-12-08T08:04:57.772Z,726.00
2023-12-08T08:05:57.839Z,726.00
2023-12-08T08:06:57.716Z,717.00
2023-12-08T08:07:57.591Z,708.00
2023-12-08T08:08:57.557Z,681.00
2023-12-08T08:09:57.462Z,672.00
2023-12-08T08:10:57.426Z,670.00
2023-12-08T08:11:57.453Z,663.00
2023-12-08T08:12:57.379Z,664.00
2023-12-08T08:13:57.348Z,692.00
2023-12-08T08:14:57.413Z,753.00
2023-12-08T08:15:57.288Z,730.00
2023-12-08T08:16:57.258Z,680.00
2023-12-08T08:17:57.315Z,660.00
2023-12-08T08:18:57.388Z,661.00
2023-12-08T08:19:57.184Z,656.00
2023-12-08T08:20:57.215Z,662.00
2023-12-08T08:22:28.008Z,662.00
2023-12-08T08:22:58.090Z,660.00
2023-12-08T08:23:57.059Z,657.00
2023-12-08T08:24:56.948Z,658.00
2023-12-08T08:25:58.454Z,664.00
2023-12-08T08:26:56.852Z,693.00
2023-12-08T08:27:57.770Z,663.00
2023-12-08T08:28:56.690Z,666.00
2023-12-08T08:29:56.688Z,670.00
2023-12-08T08:30:56.555Z,670.00
2023-12-08T08:31:56.509Z,687.00
2023-12-08T08:32:56.506Z,707.00
2023-12-08T08:33:56.516Z,734.00
2023-12-08T08:34:58.001Z,755.00
2023-12-08T08:35:56.353Z,767.00
2023-12-08T08:36:56.324Z,783.00
2023-12-08T08:37:56.320Z,789.00
2023-12-08T08:38:56.509Z,789.00
2023-12-08T08:39:56.736Z,781.00
2023-12-08T08:40:56.892Z,751.00
2023-12-08T08:41:57.098Z,745.00
2023-12-08T08:42:57.317Z,724.00
2023-12-08T08:43:57.454Z,696.00
2023-12-08T08:44:57.728Z,682.00
2023-12-08T08:45:57.856Z,659.00
2023-12-08T08:46:57.998Z,656.00
2023-12-08T08:47:58.384Z,644.00
2023-12-08T08:48:58.590Z,634.00
2023-12-08T08:49:58.768Z,631.00
2023-12-08T08:50:58.796Z,681.00
2023-12-08T08:51:59.043Z,805.00
2023-12-08T08:52:59.233Z,865.00
2023-12-08T08:53:59.455Z,910.00
2023-12-08T08:54:59.636Z,918.00
2023-12-08T08:55:59.775Z,940.00
2023-12-08T08:56:59.985Z,993.00
2023-12-08T08:58:00.225Z,978.00
2023-12-08T08:59:00.326Z,868.00
2023-12-08T09:00:01.342Z,871.00
2023-12-08T09:01:00.599Z,967.00
2023-12-08T09:02:00.558Z,1032.00
2023-12-08T09:03:00.662Z,1017.00
2023-12-08T09:04:00.652Z,952.00
2023-12-08T09:05:00.749Z,938.00
2023-12-08T09:06:00.816Z,936.00
2023-12-08T09:07:00.913Z,932.00
2023-12-08T09:08:01.046Z,867.00
2023-12-08T09:09:01.247Z,838.00
2023-12-08T09:10:01.391Z,782.00
2023-12-08T09:11:01.666Z,767.00
2023-12-08T09:12:01.867Z,758.00
2023-12-08T09:13:02.046Z,741.00
2023-12-08T09:14:02.238Z,691.00
2023-12-08T09:15:02.521Z,681.00
2023-12-08T09:16:02.631Z,684.00
2023-12-08T09:17:02.890Z,688.00
2023-12-08T09:18:03.193Z,685.00
2023-12-08T09:19:03.423Z,696.00
2023-12-08T09:20:03.454Z,678.00
2023-12-08T09:21:03.742Z,683.00
2023-12-08T09:22:03.871Z,686.00
2023-12-08T09:23:04.068Z,703.00
2023-12-08T09:24:04.363Z,700.00
2023-12-08T09:25:04.512Z,737.00
2023-12-08T09:26:04.800Z,753.00
2023-12-08T09:27:05.072Z,757.00
2023-12-08T09:28:05.159Z,764.00
2023-12-08T09:29:05.430Z,777.00
2023-12-08T09:30:05.683Z,791.00
2023-12-08T09:31:05.860Z,801.00
2023-12-08T09:32:06.062Z,813.00
2023-12-08T09:33:06.624Z,813.00
2023-12-08T09:34:06.351Z,805.00
2023-12-08T09:35:06.267Z,798.00
2023-12-08T09:36:06.317Z,786.00
2023-12-08T09:37:26.345Z,794.00
2023-12-08T09:38:08.480Z,794.00
2023-12-08T09:39:06.121Z,795.00
2023-12-08T09:40:05.974Z,801.00
2023-12-08T09:41:05.976Z,810.00
2023-12-08T09:42:05.833Z,831.00
2023-12-08T09:43:05.773Z,876.00
2023-12-08T09:44:05.715Z,931.00
2023-12-08T09:45:05.716Z,973.00
2023-12-08T09:46:05.608Z,1006.00
2023-12-08T09:47:05.543Z,975.00
2023-12-08T09:48:05.574Z,948.00
2023-12-08T09:49:05.557Z,943.00
2023-12-08T09:50:05.343Z,941.00
2023-12-08T09:51:06.061Z,978.00
2023-12-08T09:52:05.225Z,1012.00
2023-12-08T09:53:05.143Z,1044.00
2023-12-08T09:54:05.143Z,1069.00
2023-12-08T09:55:05.015Z,1076.00
2023-12-08T09:56:04.973Z,1092.00
2023-12-08T09:57:04.943Z,1146.00
2023-12-08T09:58:04.869Z,1133.00
2023-12-08T09:59:05.031Z,1147.00
2023-12-08T10:00:05.000Z,1212.00
2023-12-08T10:01:04.971Z,1181.00
2023-12-08T10:02:04.905Z,1129.00
2023-12-08T10:03:04.847Z,1081.00
2023-12-08T10:04:04.788Z,1074.00
2023-12-08T10:05:04.746Z,1072.00
2023-12-08T10:06:04.763Z,1126.00
2023-12-08T10:07:04.665Z,1178.00
2023-12-08T10:08:04.638Z,1201.00
2023-12-08T10:09:04.679Z,1197.00
2023-12-08T10:10:04.709Z,1168.00
2023-12-08T10:11:04.642Z,1169.00
2023-12-08T10:12:04.660Z,1160.00
2023-12-08T10:13:04.685Z,1185.00
2023-12-08T10:14:04.651Z,1190.00
2023-12-08T10:15:05.028Z,1192.00
2023-12-08T10:16:05.121Z,1213.00
2023-12-08T10:17:05.367Z,1211.00
2023-12-08T10:18:05.722Z,1198.00
2023-12-08T10:19:05.952Z,1203.00
2023-12-08T10:20:06.153Z,1194.00
2023-12-08T10:21:06.336Z,1184.00
2023-12-08T10:22:06.584Z,1234.00
2023-12-08T10:23:06.829Z,1240.00
2023-12-08T10:24:07.086Z,1216.00
2023-12-08T10:25:07.292Z,1226.00
2023-12-08T10:26:07.484Z,1246.00
2023-12-08T10:27:07.836Z,1270.00
2023-12-08T10:28:08.048Z,1285.00
2023-12-08T10:29:08.253Z,1312.00
2023-12-08T10:30:08.578Z,1354.00
2023-12-08T10:31:08.805Z,1361.00
2023-12-08T10:32:09.036Z,1344.00
2023-12-08T10:33:09.424Z,1338.00
2023-12-08T10:34:09.606Z,1333.00
2023-12-08T10:35:09.760Z,1349.00
2023-12-08T10:36:10.028Z,1329.00
2023-12-08T10:37:10.246Z,1294.00
2023-12-08T10:38:11.226Z,1274.00
2023-12-08T10:39:10.530Z,1271.00
2023-12-08T10:40:10.497Z,1277.00
2023-12-08T10:41:10.507Z,1341.00
2023-12-08T10:42:10.583Z,1378.00
2023-12-08T10:43:10.716Z,1423.00
2023-12-08T10:44:10.969Z,1406.00
2023-12-08T10:45:11.281Z,1386.00
2023-12-08T10:46:11.499Z,1381.00
2023-12-08T10:47:11.700Z,1375.00
2023-12-08T10:48:11.971Z,1362.00
2023-12-08T10:49:12.231Z,1419.00
2023-12-08T10:50:12.390Z,1438.00
2023-12-08T10:51:12.429Z,1416.00
2023-12-08T10:52:12.385Z,1382.00
2023-12-08T10:53:12.404Z,1364.00
2023-12-08T10:54:12.381Z,1392.00
2023-12-08T10:55:12.570Z,1483.00
2023-12-08T10:56:12.790Z,1556.00
2023-12-08T10:57:12.791Z,1576.00
2023-12-08T10:58:12.756Z,1601.00
2023-12-08T10:59:12.766Z,1586.00
2023-12-08T11:00:12.817Z,1559.00
2023-12-08T11:01:12.860Z,1515.00
2023-12-08T11:02:13.100Z,1541.00
2023-12-08T11:03:13.401Z,1533.00
2023-12-08T11:04:13.664Z,1549.00
2023-12-08T11:05:13.908Z,1564.00
2023-12-08T11:06:14.071Z,1540.00
2023-12-08T11:07:14.250Z,1514.00
2023-12-08T11:08:14.923Z,1524.00
2023-12-08T11:09:14.459Z,1499.00
2023-12-08T11:10:14.412Z,1554.00
2023-12-08T11:11:14.437Z,1588.00
2023-12-08T11:12:14.566Z,1572.00
2023-12-08T11:13:14.487Z,1573.00
2023-12-08T11:14:14.783Z,1556.00
2023-12-08T11:15:14.890Z,1534.00
2023-12-08T11:16:15.117Z,1530.00
2023-12-08T11:17:15.274Z,1502.00
2023-12-08T11:18:15.753Z,1490.00
2023-12-08T11:19:15.883Z,1496.00
2023-12-08T11:20:15.952Z,1568.00
2023-12-08T11:21:16.278Z,1624.00
2023-12-08T11:22:16.410Z,1557.00
2023-12-08T11:23:16.598Z,1550.00
2023-12-08T11:24:17.042Z,1566.00
2023-12-08T11:25:16.953Z,1525.00
2023-12-08T11:26:16.847Z,1494.00
2023-12-08T11:27:16.966Z,1488.00
2023-12-08T11:28:16.775Z,1487.00
2023-12-08T11:29:16.783Z,1472.00
2023-12-08T11:30:16.740Z,1454.00
2023-12-08T11:31:16.671Z,1526.00
2023-12-08T11:32:16.686Z,1532.00
2023-12-08T11:33:16.755Z,1492.00
2023-12-08T11:34:16.664Z,1469.00
2023-12-08T11:35:16.583Z,1496.00
2023-12-08T11:36:16.600Z,1486.00
2023-12-08T11:37:16.524Z,1488.00
2023-12-08T11:38:16.473Z,1485.00
2023-12-08T11:39:16.481Z,1494.00
2023-12-08T11:40:16.478Z,1571.00
2023-12-08T11:41:16.588Z,1639.00
2023-12-08T11:42:16.454Z,1591.00
2023-12-08T11:43:16.470Z,1513.00
2023-12-08T11:44:16.469Z,1494.00
2023-12-08T11:45:16.459Z,1440.00
2023-12-08T11:46:16.488Z,1473.00
2023-12-08T11:47:16.474Z,1473.00
2023-12-08T11:48:16.580Z,1457.00
2023-12-08T11:49:16.498Z,1428.00
2023-12-08T11:50:16.370Z,1421.00
2023-12-08T11:51:16.336Z,1428.00
2023-12-08T11:52:16.294Z,1430.00
2023-12-08T11:53:16.260Z,1445.00
2023-12-08T11:54:16.265Z,1482.00
2023-12-08T11:55:21.704Z,1457.00
2023-12-08T11:56:17.321Z,1458.00
2023-12-08T11:57:16.264Z,1450.00
2023-12-08T11:58:16.189Z,1434.00
2023-12-08T11:59:16.119Z,1442.00
2023-12-08T12:00:16.099Z,1449.00
2023-12-08T12:01:16.025Z,1512.00
2023-12-08T12:02:15.943Z,1480.00
2023-12-08T12:03:15.940Z,1476.00
2023-12-08T12:04:15.875Z,1535.00
2023-12-08T12:05:15.712Z,1633.00
2023-12-08T12:06:16.836Z,1690.00
2023-12-08T12:07:15.621Z,1668.00
2023-12-08T12:08:15.593Z,1653.00
2023-12-08T12:09:15.637Z,1686.00
2023-12-08T12:10:15.548Z,1638.00
2023-12-08T12:11:17.935Z,1591.00
2023-12-08T12:12:15.613Z,1576.00
2023-12-08T12:13:15.627Z,1597.00
2023-12-08T12:14:15.650Z,1641.00
2023-12-08T12:15:15.788Z,1709.00
2023-12-08T12:16:16.014Z,1709.00
2023-12-08T12:17:16.971Z,1693.00
2023-12-08T12:18:16.430Z,1660.00
2023-12-08T12:19:16.368Z,1640.00
2023-12-08T12:20:16.260Z,1644.00
2023-12-08T12:21:16.319Z,1637.00
2023-12-08T12:22:16.276Z,1653.00
2023-12-08T12:23:18.332Z,1681.00